Northern & Central Napa County

33 Stations

15 Minute Data | America/Los_Angeles
as of 9/2/26 1:01 AM PDT
Station Date Time Temp (°F) RH (%) Dew Pt (°F) Wind Spd (mph) Wind Dir (°) Wind Gust (mph) Latest Rain (In) Daily Rain (In) Daily Max Temp (°F) Daily Min Temp (°F)
Tenma (North Calistoga) 9/2/26 0045 55.3   4.3 - - - - - 0.00 0.00 77.4   2.5 53.9   1.2
Calistoga-Solari 9/2/26 0100 53.6   4.9 89   7 50.6   2.6 0.2   2.2 N | 8 1.9   2.7 0.00 0.00 74.9   1.6 53.0   3.1
Calistoga-North 9/2/26 0100 57.4   2.3 89   6 54.3   0.4 - - - 0.00 0.00 77.9   1.8 54.8   2.1
Twomey Calistoga 9/2/26 0100 49.8   4.8 95   0 48.4   4.9 0.4   0.3 WNW | 284 1.5   0.3 0.00 0.00 77.5   4.5 48.6   0.3
Paloma 9/2/26 0100 56.1   3.6 89   9 52.8   0.7 1.8   0.3 SSW | 203 2.8   3.2 0.00 0.00 78.3   3.0 54.1   2.5
Calistoga (Ranch 78) 9/2/26 0100 54.8   2.6 87   5 51.0   0.8 0.8   0.3 SSE | 162 2.8   1.2 0.00 0.00 76.3   2.6 53.3   0.0
Diamond Mtn (Schramsberg) 9/2/26 0100 55.6   0.3 87   2 51.6   0.2 - - - 0.00 0.00 72.8   3.4 53.7   0.8
Diamond Mtn (McEachran) 9/2/26 0100 56.7   0.8 85   1 52.1   1.0 - - - - - 71.9   7.7 54.3   1.2
Deer Park 9/2/26 0045 55.6   2.0 85   2 51.3   1.5 2.8   1.0 N | 354 3.8   0.6 0.00 0.00 75.4   3.1 54.9   0.4
St. Helena-North 9/2/26 0100 55.6   3.7 79   3 49.3   2.4 1.1   0.8 NW | 316 3.1   0.9 0.00 0.00 75.7   4.0 54.4   2.5
St. Helena (NVV Office) 9/2/26 0045 58.8   0.6 - - 0.8   0.4 WNW | 300 2.6   0.7 0.00 0.00 77.7   3.2 57.2   0.1
Tiara Fria (East St. Helena) 9/2/26 0100 54.6   4.6 84   5 50.0   2.8 1.2   0.9 E | 84 2.0   0.1 0.00 0.00 76.2   3.1 54.3   2.9
Prisoner Winery 9/2/26 0100 55.2   1.2 87   2 51.3   0.5 0.8   0.4 NE | 47 2.6   0.5 0.00 0.00 76.8   4.6 53.2   0.3
Rutherford Hill Estate 9/2/26 0100 56.2   1.7 85   2 51.9   1.0 0.9   0.4 E | 80 2.2   0.4 0.00 0.00 78.6   1.6 56.1   0.5
Rutherford-North (Mee Ln) 9/2/26 0100 53.6   1.1 88   1 50.0   0.8 0.7   0.1 NNE | 12 2.2   0.2 0.00 0.00 76.5   3.2 52.8   1.2
Rutherford (STS) 9/2/26 0100 54.1   3.0 90   4 51.4   1.7 0.8   0.1 NE | 34 3.1   0.3 0.00 0.00 78.6   2.6 53.5   1.5
Silver Oak OV 9/2/26 0045 57.4   0.8 82   4 52.1   0.5 0.6   0.4 SW | 234 1.9   0.4 0.00 0.00 76.2   1.0 57.0   1.6
Oakville-NE (Ranch 88) 9/2/26 0045 55.1   2.1 81   1 49.3   1.6 0.0   0.0 N | 0 0.0   0.0 0.00 0.00 77.4   1.8 55.0   1.5
Crossroads Ranch 9/2/26 0100 56.3   2.2 82   0 50.8   2.3 0.9   0.0 NNW | 342 4.0   2.3 0.00 0.00 76.4   1.1 56.3   0.7
Oakville 9/2/26 0100 57.2   1.3 80   1 51.3   1.6 0.1   0.2 ENE | 71 1.2   0.5 0.00 0.00 76.3   1.0 56.7   0.7
To Kalon Remote (TKKE) 9/2/26 0100 58.4   0.0 - - - - - - - 78.9   1.5 56.8   0.1
To Kalon 9/2/26 0100 57.6   1.9 82   1 52.2   1.6 0.6   1.2 SSE | 160 1.7   3.7 0.00 0.00 76.5   2.3 56.9   0.1
To Kalon Remote (TKN5) 9/2/26 0100 57.6   3.2 - - - - - - - 76.9   3.2 56.9   0.3
Jump Rock 9/2/26 0045 45.7   9.7 93   1 43.7   9.4 0.8   1.0 ENE | 62 2.0   2.7 0.00 0.00 70.0   2.7 45.4   1.5
State Lane Ranch 9/2/26 0100 52.9   7.2 92   9 50.5   4.2 1.4   0.2 NW | 316 3.6   0.1 0.00 0.00 78.3   1.9 51.9   4.4
Yountville (Ranch 67) 9/2/26 0100 52.0   7.8 85   10 47.5   4.2 0.7   1.2 NW | 324 3.0   3.3 0.00 0.00 74.8   0.4 51.8   3.2
Borreo (Soda Canyon) 9/2/26 0100 50.9   7.9 91   12 48.3   4.0 1.4   0.8 N | 353 2.6   0.7 0.00 0.00 74.0   0.7 50.7   2.4
Wappo Hill Floor 9/2/26 0100 53.0   7.6 85   8 48.8   4.6 0.2   1.6 NNW | 339 1.1   1.3 0.00 0.00 76.2   0.2 52.7   3.0
Wappo Hill 9/2/26 0100 56.8   3.6 84   6 51.9   1.3 1.3   0.8 NW | 312 2.7   1.0 0.00 0.00 76.6   0.7 56.8   1.5
Stags Leap Dist (Chimney Rock) 9/2/26 0045 53.6   6.8 90   9 50.7   3.9 0.7   0.2 NE | 52 2.0   0.5 0.00 0.00 76.8   1.1 53.2   2.7
Stags Leap Dist (Silverado Vineyards) 9/2/26 0045 53.4   6.5 87   11 49.6   2.9 0.3   1.0 ESE | 118 2.2   1.8 0.00 0.00 77.9   2.4 52.9   2.3
Yountville-SE (Ranch 85) 9/2/26 0100 53.9   5.9 87   7 50.3   3.6 0.7   0.2 NW | 313 2.8   0.9 0.00 0.00 77.9   2.3 53.5   1.9
Yountville-South (Ranch 87) 9/2/26 0100 52.7   6.0 88   5 49.1   4.3 0.8   0.6 NW | 309 2.5   0.9 0.00 0.00 76.5   0.8 52.5   3.2
Max     58.8 95 54.3 2.8 - 4.0 0.00 0.00 78.9 57.2
Avg     54.8 86 50.4 0.8 - 2.4 0.00 - - -
Min     45.7 79 43.7 0.0 - 0.0 0.00 0.00 70.0 45.4